createdAt,value
2022-12-01T00:01:18.310Z,98834.84
2022-12-01T00:03:44.875Z,98840.13
2022-12-01T00:06:15.737Z,98837.47
2022-12-01T00:09:02.300Z,98842.19
2022-12-01T00:11:29.294Z,98844.94
2022-12-01T00:13:55.955Z,98838.34
2022-12-01T00:16:22.721Z,98844.19
2022-12-01T00:18:51.181Z,98847.47
2022-12-01T00:21:20.226Z,98839.41
2022-12-01T00:23:48.395Z,98844.72
2022-12-01T00:26:16.106Z,98841.28
2022-12-01T00:28:42.676Z,98839.31
2022-12-01T00:31:10.612Z,98844.03
2022-12-01T00:33:37.699Z,98842.75
2022-12-01T00:36:04.882Z,98841.72
2022-12-01T00:38:32.083Z,98847.75
2022-12-01T00:40:58.652Z,98849.53
2022-12-01T00:43:25.531Z,98851.66
2022-12-01T00:45:52.197Z,98849.09
2022-12-01T00:48:21.072Z,98841.66
2022-12-01T00:50:47.943Z,98844.19
2022-12-01T00:53:14.565Z,98844.56
2022-12-01T00:55:41.083Z,98852.03
2022-12-01T00:58:07.693Z,98847.78
2022-12-01T01:00:34.463Z,98849.63
2022-12-01T01:03:01.517Z,98846.72
2022-12-01T01:05:28.053Z,98846.63
2022-12-01T01:07:54.818Z,98852.41
2022-12-01T01:10:22.697Z,98849.72
2022-12-01T01:12:52.004Z,98848.56
2022-12-01T01:15:18.617Z,98846.28
2022-12-01T01:17:45.650Z,98856.03
2022-12-01T01:20:12.692Z,98857.63
2022-12-01T01:22:39.304Z,98856.88
2022-12-01T01:25:06.274Z,98856.22
2022-12-01T01:27:34.595Z,98861.28
2022-12-01T01:30:01.061Z,98853.88
2022-12-01T01:32:27.623Z,98857.16
2022-12-01T01:34:54.175Z,98851.94
2022-12-01T01:37:20.703Z,98863.25
2022-12-01T01:39:47.601Z,98863.34
2022-12-01T01:42:15.060Z,98860.56
2022-12-01T01:44:50.524Z,98853.44
2022-12-01T01:47:21.376Z,98854.56
2022-12-01T01:49:48.864Z,98857.78
2022-12-01T01:52:16.367Z,98853.66
2022-12-01T01:54:45.606Z,98864.78
2022-12-01T01:57:15.492Z,98860.88
2022-12-01T01:59:50.182Z,98865.75
2022-12-01T02:02:17.555Z,98867.09
2022-12-01T02:04:49.366Z,98868.13
2022-12-01T02:07:18.772Z,98865.28
2022-12-01T02:09:45.563Z,98861.94
2022-12-01T02:12:27.480Z,98858.38
2022-12-01T02:15:03.326Z,98858.22
2022-12-01T02:18:04.142Z,98853.44
2022-12-01T02:20:36.872Z,98850.44
2022-12-01T02:23:06.680Z,98853.00
2022-12-01T02:25:49.088Z,98851.47
2022-12-01T02:28:18.556Z,98858.50
2022-12-01T02:30:56.872Z,98855.22
2022-12-01T02:33:34.601Z,98851.50
2022-12-01T02:36:22.122Z,98848.50
2022-12-01T02:39:08.170Z,98848.63
2022-12-01T02:41:59.070Z,98851.50
2022-12-01T02:44:39.145Z,98842.34
2022-12-01T02:47:12.296Z,98846.66
2022-12-01T02:49:42.338Z,98841.72
2022-12-01T02:52:10.181Z,98842.84
2022-12-01T02:54:37.532Z,98844.63
2022-12-01T02:57:04.175Z,98844.78
2022-12-01T02:59:30.735Z,98846.03
2022-12-01T03:02:42.817Z,98852.69
2022-12-01T03:05:34.951Z,98854.38
2022-12-01T03:08:15.785Z,98848.50
2022-12-01T03:10:53.800Z,98851.47
2022-12-01T03:13:46.649Z,98847.59
2022-12-01T03:16:47.583Z,98835.16
2022-12-01T03:19:34.227Z,98841.56
2022-12-01T03:22:28.846Z,98847.13
2022-12-01T03:24:55.920Z,98838.38
2022-12-01T03:27:25.796Z,98840.91
2022-12-01T03:29:54.636Z,98838.28
2022-12-01T03:32:31.775Z,98831.97
2022-12-01T03:35:04.754Z,98839.56
2022-12-01T03:37:37.628Z,98838.50
2022-12-01T03:40:08.901Z,98833.41
2022-12-01T03:42:38.810Z,98839.41
2022-12-01T03:45:09.362Z,98841.31
2022-12-01T03:47:37.723Z,98841.16
2022-12-01T03:50:05.839Z,98838.50
2022-12-01T03:52:42.495Z,98849.66
2022-12-01T03:55:21.036Z,98851.75
2022-12-01T03:58:01.661Z,98850.94
2022-12-01T04:00:28.478Z,98847.13
2022-12-01T04:02:56.663Z,98838.38
2022-12-01T04:05:25.447Z,98837.69
2022-12-01T04:07:52.765Z,98839.69
2022-12-01T04:10:19.724Z,98838.63
2022-12-01T04:12:46.308Z,98840.81
2022-12-01T04:15:14.440Z,98845.28
2022-12-01T04:17:45.047Z,98845.28
2022-12-01T04:20:15.542Z,98841.16
2022-12-01T04:22:42.141Z,98849.13
2022-12-01T04:25:09.736Z,98847.06
2022-12-01T04:27:41.399Z,98849.09
2022-12-01T04:30:09.244Z,98843.34
2022-12-01T04:32:40.451Z,98841.72
2022-12-01T04:35:09.069Z,98851.84
2022-12-01T04:37:35.766Z,98850.00
2022-12-01T04:40:02.359Z,98848.78
2022-12-01T04:42:28.934Z,98846.88
2022-12-01T04:44:55.554Z,98845.78
2022-12-01T04:47:22.085Z,98844.25
2022-12-01T04:49:49.292Z,98840.19
2022-12-01T04:52:16.075Z,98845.28
2022-12-01T04:54:42.692Z,98849.75
2022-12-01T04:57:09.270Z,98848.91
2022-12-01T04:59:35.789Z,98841.50
2022-12-01T05:02:04.008Z,98843.75
2022-12-01T05:04:31.346Z,98848.78
2022-12-01T05:06:57.898Z,98842.41
2022-12-01T05:09:24.535Z,98849.03
2022-12-01T05:11:51.105Z,98853.44
2022-12-01T05:14:17.645Z,98854.72
2022-12-01T05:16:44.411Z,98853.13
2022-12-01T05:19:29.435Z,98860.81
2022-12-01T05:21:55.947Z,98855.75
2022-12-01T05:24:22.524Z,98856.50
2022-12-01T05:26:49.214Z,98859.97
2022-12-01T05:29:15.726Z,98864.38
2022-12-01T05:31:42.455Z,98864.69
2022-12-01T05:34:09.356Z,98864.59
2022-12-01T05:36:36.382Z,98862.75
2022-12-01T05:39:03.202Z,98857.41
2022-12-01T05:41:29.782Z,98854.78
2022-12-01T05:43:56.327Z,98842.41
2022-12-01T05:46:23.075Z,98847.44
2022-12-01T05:48:50.072Z,98853.25
2022-12-01T05:51:17.117Z,98853.94
2022-12-01T05:53:44.272Z,98855.97
2022-12-01T05:56:10.823Z,98857.47
2022-12-01T05:58:37.668Z,98858.13
2022-12-01T06:01:04.556Z,98863.06
2022-12-01T06:03:31.277Z,98868.72
2022-12-01T06:05:57.824Z,98865.63
2022-12-01T06:08:24.428Z,98860.81
2022-12-01T06:10:51.310Z,98863.22
2022-12-01T06:13:17.927Z,98863.47
2022-12-01T06:15:44.470Z,98860.88
2022-12-01T06:18:11.070Z,98864.09
2022-12-01T06:20:37.634Z,98865.28
2022-12-01T06:23:04.289Z,98866.19
2022-12-01T06:25:30.938Z,98868.16
2022-12-01T06:27:58.156Z,98857.78
2022-12-01T06:30:25.698Z,98863.19
2022-12-01T06:32:52.496Z,98871.16
2022-12-01T06:35:19.304Z,98870.56
2022-12-01T06:37:46.103Z,98872.41
2022-12-01T06:40:13.204Z,98872.75
2022-12-01T06:42:39.716Z,98876.28
2022-12-01T06:45:06.647Z,98875.50
2022-12-01T06:47:33.288Z,98878.50
2022-12-01T06:50:00.013Z,98873.31
2022-12-01T06:52:26.611Z,98875.59
2022-12-01T06:54:53.189Z,98881.25
2022-12-01T06:57:20.172Z,98885.56
2022-12-01T06:59:47.672Z,98891.50
2022-12-01T07:02:14.914Z,98892.00
2022-12-01T07:04:41.525Z,98894.81
2022-12-01T07:07:08.300Z,98882.06
2022-12-01T07:09:35.041Z,98890.84
2022-12-01T07:12:01.670Z,98887.47
2022-12-01T07:14:28.566Z,98900.22
2022-12-01T07:16:55.285Z,98899.28
2022-12-01T07:19:22.144Z,98894.59
2022-12-01T07:21:48.779Z,98900.22
2022-12-01T07:24:15.594Z,98897.91
2022-12-01T07:26:42.598Z,98891.09
2022-12-01T07:29:09.937Z,98901.16
2022-12-01T07:31:37.701Z,98899.41
2022-12-01T07:34:04.997Z,98899.31
2022-12-01T07:36:31.842Z,98900.91
2022-12-01T07:38:58.461Z,98908.16
2022-12-01T07:41:25.359Z,98902.50
2022-12-01T07:43:51.977Z,98906.22
2022-12-01T07:46:23.595Z,98903.66
2022-12-01T07:48:51.551Z,98898.38
2022-12-01T07:51:18.653Z,98898.38
2022-12-01T07:53:46.344Z,98901.34
2022-12-01T07:56:13.685Z,98888.84
2022-12-01T07:58:40.299Z,98894.94
2022-12-01T08:01:08.287Z,98900.97
2022-12-01T08:03:35.356Z,98908.50
2022-12-01T08:06:02.942Z,98917.38
2022-12-01T08:08:30.446Z,98918.56
2022-12-01T08:11:00.591Z,98919.13
2022-12-01T08:13:27.438Z,98916.41
2022-12-01T08:15:54.223Z,98920.66
2022-12-01T08:18:20.819Z,98924.81
2022-12-01T08:20:47.473Z,98924.19
2022-12-01T08:23:14.244Z,98930.34
2022-12-01T08:25:40.795Z,98930.22
2022-12-01T08:28:07.341Z,98930.56
2022-12-01T08:30:33.999Z,98928.94
2022-12-01T08:33:00.650Z,98935.22
2022-12-01T08:35:27.303Z,98925.75
2022-12-01T08:37:54.332Z,98931.78
2022-12-01T08:40:21.941Z,98929.69
2022-12-01T08:42:48.539Z,98925.53
2022-12-01T08:45:15.150Z,98931.59
2022-12-01T08:47:41.866Z,98930.34
2022-12-01T08:50:08.848Z,98925.63
2022-12-01T08:52:35.746Z,98927.94
2022-12-01T08:55:02.395Z,98940.41
2022-12-01T08:57:29.814Z,98934.09
2022-12-01T08:59:56.376Z,98940.59
2022-12-01T09:02:23.452Z,98939.25
2022-12-01T09:04:50.672Z,98931.94
2022-12-01T09:07:22.975Z,98937.41
2022-12-01T09:09:52.920Z,98935.06
2022-12-01T09:12:19.571Z,98936.69
2022-12-01T09:14:48.279Z,98926.44
2022-12-01T09:17:16.080Z,98927.63
2022-12-01T09:19:43.559Z,98932.56
2022-12-01T09:22:11.376Z,98941.09
2022-12-01T09:24:38.155Z,98934.13
2022-12-01T09:27:05.020Z,98936.72
2022-12-01T09:29:31.686Z,98935.72
2022-12-01T09:31:59.209Z,98935.06
2022-12-01T09:34:26.326Z,98938.66
2022-12-01T09:36:58.382Z,98938.97
2022-12-01T09:39:25.617Z,98938.41
2022-12-01T09:41:58.178Z,98943.44
2022-12-01T09:44:44.147Z,98935.53
2022-12-01T09:47:30.067Z,98935.50
2022-12-01T09:50:00.154Z,98938.75
2022-12-01T09:52:38.673Z,98931.50
2022-12-01T09:55:11.922Z,98935.22
2022-12-01T09:57:40.396Z,98933.50
2022-12-01T10:00:14.519Z,98925.22
2022-12-01T10:03:03.013Z,98928.13
2022-12-01T10:05:51.282Z,98925.53
2022-12-01T10:08:29.028Z,98912.53
2022-12-01T10:11:00.402Z,98918.88
2022-12-01T10:13:28.823Z,98922.09
2022-12-01T10:15:55.370Z,98906.72
2022-12-01T10:18:58.935Z,98905.63
2022-12-01T10:21:40.955Z,98901.63
2022-12-01T10:24:17.958Z,98901.19
2022-12-01T10:26:52.143Z,98892.97
2022-12-01T10:29:28.635Z,98891.03
2022-12-01T10:32:06.961Z,98896.72
2022-12-01T10:34:38.919Z,98896.03
2022-12-01T10:37:05.755Z,98891.91
2022-12-01T10:39:38.345Z,98886.19
2022-12-01T10:42:22.557Z,98879.63
2022-12-01T10:44:50.111Z,98884.75
2022-12-01T10:47:22.184Z,98875.66
2022-12-01T10:49:52.971Z,98881.53
2022-12-01T10:52:41.979Z,98881.00
2022-12-01T10:55:41.951Z,98888.13
2022-12-01T10:58:18.854Z,98886.31
2022-12-01T11:01:00.607Z,98888.41
2022-12-01T11:03:36.055Z,98883.94
2022-12-01T11:06:07.380Z,98877.03
2022-12-01T11:08:40.584Z,98873.63
2022-12-01T11:11:40.987Z,98872.56
2022-12-01T11:14:16.495Z,98870.50
2022-12-01T11:16:45.916Z,98868.97
2022-12-01T11:19:26.917Z,98865.69
2022-12-01T11:21:59.612Z,98869.16
2022-12-01T11:24:45.782Z,98856.31
2022-12-01T11:27:24.771Z,98854.53
2022-12-01T11:30:05.051Z,98841.22
2022-12-01T11:32:35.008Z,98847.88
2022-12-01T11:35:23.844Z,98845.25
2022-12-01T11:38:27.926Z,98840.78
2022-12-01T11:40:57.100Z,98841.00
2022-12-01T11:43:28.836Z,98845.91
2022-12-01T11:45:57.365Z,98840.16
2022-12-01T11:48:26.503Z,98847.94
2022-12-01T11:51:07.037Z,98844.25
2022-12-01T11:53:42.343Z,98843.22
2022-12-01T11:56:29.254Z,98842.41
2022-12-01T11:59:01.340Z,98834.91
2022-12-01T12:01:27.754Z,98839.13
2022-12-01T12:04:29.648Z,98834.00
2022-12-01T12:07:05.624Z,98828.88
2022-12-01T12:10:12.981Z,98830.13
2022-12-01T12:13:09.127Z,98825.06
2022-12-01T12:16:03.727Z,98831.03
2022-12-01T12:18:56.437Z,98828.94
2022-12-01T12:21:42.059Z,98821.78
2022-12-01T12:24:39.271Z,98817.59
2022-12-01T12:27:11.976Z,98820.56
2022-12-01T12:29:48.897Z,98812.28
2022-12-01T12:32:53.601Z,98818.53
2022-12-01T12:35:23.599Z,98810.88
2022-12-01T12:38:09.147Z,98813.41
2022-12-01T12:40:42.037Z,98809.81
2022-12-01T12:43:08.477Z,98804.97
2022-12-01T12:45:38.102Z,98807.38
2022-12-01T12:48:29.640Z,98807.91
2022-12-01T12:51:14.853Z,98801.84
2022-12-01T12:54:06.753Z,98803.78
2022-12-01T12:56:34.185Z,98804.63
2022-12-01T12:59:04.568Z,98805.34
2022-12-01T13:01:42.055Z,98808.75
2022-12-01T13:04:50.288Z,98802.72
2022-12-01T13:07:25.711Z,98804.72
2022-12-01T13:10:00.967Z,98807.59
2022-12-01T13:12:34.551Z,98805.56
2022-12-01T13:15:19.025Z,98799.31
2022-12-01T13:17:55.054Z,98805.72
2022-12-01T13:20:27.496Z,98806.03
2022-12-01T13:22:54.764Z,98804.78
2022-12-01T13:25:28.221Z,98798.03
2022-12-01T13:27:55.399Z,98798.63
2022-12-01T13:30:26.245Z,98792.16
2022-12-01T13:33:04.236Z,98793.53
2022-12-01T13:35:35.904Z,98794.84
2022-12-01T13:38:20.816Z,98794.53
2022-12-01T13:40:47.872Z,98788.84
2022-12-01T13:43:20.768Z,98795.47
2022-12-01T13:45:48.277Z,98799.25
2022-12-01T13:48:29.433Z,98801.19
2022-12-01T13:50:57.023Z,98793.84
2022-12-01T13:53:34.755Z,98798.63
2022-12-01T13:56:06.000Z,98793.56
2022-12-01T13:58:35.648Z,98796.47
2022-12-01T14:01:21.127Z,98792.94
2022-12-01T14:04:18.400Z,98790.81
2022-12-01T14:06:49.431Z,98794.41
2022-12-01T14:09:32.069Z,98795.06
2022-12-01T14:12:30.300Z,98793.66
2022-12-01T14:15:00.813Z,98787.81
2022-12-01T14:17:36.426Z,98793.34
2022-12-01T14:20:22.882Z,98791.88
2022-12-01T14:23:14.331Z,98796.44
2022-12-01T14:25:41.847Z,98796.25
2022-12-01T14:28:16.045Z,98796.22
2022-12-01T14:30:44.372Z,98793.84
2022-12-01T14:33:36.003Z,98786.91
2022-12-01T14:36:03.928Z,98778.88
2022-12-01T14:38:32.469Z,98784.00
2022-12-01T14:40:59.937Z,98783.78
2022-12-01T14:43:45.658Z,98784.69
2022-12-01T14:46:14.795Z,98781.53
2022-12-01T14:48:43.428Z,98780.31
2022-12-01T14:51:33.554Z,98779.88
2022-12-01T14:54:05.945Z,98780.56
2022-12-01T14:56:33.352Z,98781.44
2022-12-01T14:59:02.735Z,98783.03
2022-12-01T15:01:35.396Z,98785.69
2022-12-01T15:04:04.644Z,98778.69
2022-12-01T15:06:33.032Z,98781.66
2022-12-01T15:12:25.377Z,98772.91
2022-12-01T15:14:52.303Z,98773.25
2022-12-01T15:17:31.091Z,98778.00
2022-12-01T15:19:58.114Z,98781.44
2022-12-01T15:22:29.558Z,98777.69
2022-12-01T15:25:06.462Z,98776.34
2022-12-01T15:27:34.717Z,98785.06
2022-12-01T15:30:13.377Z,98784.22
2022-12-01T15:32:45.583Z,98783.56
2022-12-01T15:35:22.648Z,98783.44
2022-12-01T15:37:50.105Z,98780.47
2022-12-01T15:41:06.238Z,98780.81
2022-12-01T15:43:26.490Z,98782.81
2022-12-01T15:45:59.702Z,98794.84
2022-12-01T15:48:34.829Z,98795.91
2022-12-01T15:51:09.195Z,98797.19
2022-12-01T15:53:42.578Z,98792.06
2022-12-01T15:56:10.795Z,98786.13
2022-12-01T15:58:43.668Z,98782.38
2022-12-01T16:01:13.372Z,98784.75
2022-12-01T16:04:05.421Z,98789.94
2022-12-01T16:06:35.292Z,98794.22
2022-12-01T16:09:27.583Z,98789.41
2022-12-01T16:12:09.477Z,98790.47
2022-12-01T16:14:36.658Z,98785.78
2022-12-01T16:17:04.701Z,98787.41
2022-12-01T16:19:32.995Z,98789.28
2022-12-01T16:22:18.286Z,98787.19
2022-12-01T16:24:49.797Z,98788.25
2022-12-01T16:27:18.517Z,98792.53
2022-12-01T16:29:54.895Z,98791.63
2022-12-01T16:32:40.515Z,98784.22
2022-12-01T16:35:22.383Z,98794.28
2022-12-01T16:37:48.995Z,98785.28
2022-12-01T16:40:16.738Z,98785.28
2022-12-01T16:42:43.314Z,98789.50
2022-12-01T16:45:14.784Z,98792.50
2022-12-01T16:47:42.287Z,98783.78
2022-12-01T16:50:19.786Z,98785.47
2022-12-01T16:52:46.980Z,98787.81
2022-12-01T16:55:33.724Z,98782.28
2022-12-01T16:58:00.348Z,98784.00
2022-12-01T17:00:27.619Z,98786.22
2022-12-01T17:02:54.471Z,98787.41
2022-12-01T17:05:21.526Z,98789.41
2022-12-01T17:07:53.655Z,98792.16
2022-12-01T17:10:24.214Z,98791.31
2022-12-01T17:12:51.754Z,98789.53
2022-12-01T17:15:18.508Z,98785.78
2022-12-01T17:17:48.619Z,98784.22
2022-12-01T17:20:15.751Z,98790.16
2022-12-01T17:22:42.604Z,98785.25
2022-12-01T17:25:09.742Z,98794.41
2022-12-01T17:27:37.466Z,98794.28
2022-12-01T17:30:05.819Z,98788.25
2022-12-01T17:32:32.597Z,98788.03
2022-12-01T17:34:59.294Z,98791.00
2022-12-01T17:37:30.172Z,98783.16
2022-12-01T17:39:57.305Z,98786.63
2022-12-01T17:42:24.023Z,98788.25
2022-12-01T17:44:50.894Z,98786.97
2022-12-01T17:47:18.174Z,98788.88
2022-12-01T17:49:44.792Z,98794.50
2022-12-01T17:52:11.563Z,98790.38
2022-12-01T17:54:38.514Z,98788.34
2022-12-01T17:57:07.292Z,98791.97
2022-12-01T17:59:34.998Z,98789.31
2022-12-01T18:02:03.065Z,98797.78
2022-12-01T18:04:33.113Z,98797.81
2022-12-01T18:07:00.550Z,98798.13
2022-12-01T18:09:27.117Z,98801.53
2022-12-01T18:11:56.133Z,98797.47
2022-12-01T18:14:24.415Z,98800.06
2022-12-01T18:16:51.549Z,98805.66
2022-12-01T18:19:18.527Z,98803.66
2022-12-01T18:21:46.354Z,98794.63
2022-12-01T18:24:12.979Z,98794.41
2022-12-01T18:26:40.556Z,98792.59
2022-12-01T18:29:15.971Z,98796.75
2022-12-01T18:31:43.169Z,98797.25
2022-12-01T18:34:10.473Z,98790.13
2022-12-01T18:36:39.286Z,98789.78
2022-12-01T18:39:10.275Z,98788.84
2022-12-01T18:41:37.241Z,98786.22
2022-12-01T18:44:04.455Z,98780.69
2022-12-01T18:46:31.352Z,98784.13
2022-12-01T18:49:01.984Z,98784.34
2022-12-01T18:51:34.065Z,98785.34
2022-12-01T18:54:02.245Z,98779.06
2022-12-01T18:56:28.738Z,98775.78
2022-12-01T18:58:56.633Z,98775.22
2022-12-01T19:01:28.711Z,98763.75
2022-12-01T19:03:56.079Z,98773.66
2022-12-01T19:06:23.272Z,98768.34
2022-12-01T19:08:50.187Z,98775.66
2022-12-01T19:11:17.569Z,98771.19
2022-12-01T19:13:44.695Z,98774.19
2022-12-01T19:16:13.822Z,98774.16
2022-12-01T19:18:40.446Z,98767.84
2022-12-01T19:21:08.615Z,98766.75
2022-12-01T19:23:35.185Z,98773.97
2022-12-01T19:26:06.840Z,98773.44
2022-12-01T19:28:34.883Z,98773.63
2022-12-01T19:31:09.741Z,98772.03
2022-12-01T19:33:36.424Z,98768.66
2022-12-01T19:36:08.076Z,98766.72
2022-12-01T19:38:35.076Z,98765.28
2022-12-01T19:41:02.363Z,98767.94
2022-12-01T19:43:29.054Z,98762.44
2022-12-01T19:45:55.746Z,98758.34
2022-12-01T19:48:22.444Z,98759.03
2022-12-01T19:50:49.480Z,98770.53
2022-12-01T19:53:16.231Z,98760.56
2022-12-01T19:55:42.907Z,98763.53
2022-12-01T19:58:09.504Z,98768.91
2022-12-01T20:00:36.152Z,98762.31
2022-12-01T20:03:02.860Z,98766.50
2022-12-01T20:05:29.615Z,98762.19
2022-12-01T20:07:56.225Z,98768.00
2022-12-01T20:10:22.948Z,98775.25
2022-12-01T20:12:50.844Z,98773.25
2022-12-01T20:15:17.533Z,98766.66
2022-12-01T20:17:44.661Z,98767.59
2022-12-01T20:20:11.930Z,98765.03
2022-12-01T20:22:38.594Z,98773.09
2022-12-01T20:25:06.392Z,98771.13
2022-12-01T20:27:32.936Z,98768.97
2022-12-01T20:29:59.461Z,98765.66
2022-12-01T20:32:26.291Z,98776.72
2022-12-01T20:34:53.987Z,98770.91
2022-12-01T20:37:20.686Z,98777.56
2022-12-01T20:39:47.830Z,98771.63
2022-12-01T20:42:14.812Z,98773.97
2022-12-01T20:44:41.656Z,98777.81
2022-12-01T20:47:12.646Z,98773.16
2022-12-01T20:49:39.250Z,98776.22
2022-12-01T20:52:05.926Z,98779.41
2022-12-01T20:54:32.777Z,98782.13
2022-12-01T20:56:59.394Z,98770.47
2022-12-01T20:59:26.388Z,98772.91
2022-12-01T21:01:53.360Z,98772.59
2022-12-01T21:04:20.330Z,98763.38
2022-12-01T21:06:47.179Z,98767.19
2022-12-01T21:09:14.838Z,98764.00
2022-12-01T21:12:09.685Z,98763.16
2022-12-01T21:14:45.792Z,98758.78
2022-12-01T21:17:24.516Z,98764.09
2022-12-01T21:20:25.138Z,98761.66
2022-12-01T21:22:53.982Z,98756.22
2022-12-01T21:25:23.372Z,98757.00
2022-12-01T21:27:50.428Z,98760.91
2022-12-01T21:30:25.937Z,98758.66
2022-12-01T21:32:53.585Z,98751.56
2022-12-01T21:35:22.574Z,98751.97
2022-12-01T21:37:51.127Z,98750.19
2022-12-01T21:40:23.046Z,98747.28
2022-12-01T21:42:50.033Z,98750.97
2022-12-01T21:45:28.243Z,98745.69
2022-12-01T21:48:10.723Z,98744.16
2022-12-01T21:50:37.283Z,98748.22
2022-12-01T21:53:14.347Z,98746.09
2022-12-01T21:55:42.982Z,98741.75
2022-12-01T21:58:30.538Z,98746.66
2022-12-01T22:00:58.892Z,98739.84
2022-12-01T22:03:32.075Z,98737.31
2022-12-01T22:06:27.716Z,98731.00
2022-12-01T22:08:46.635Z,98734.22
2022-12-01T22:11:23.000Z,98732.94
2022-12-01T22:13:49.535Z,98737.81
2022-12-01T22:17:09.080Z,98731.03
2022-12-01T22:19:37.593Z,98725.81
2022-12-01T22:22:16.308Z,98724.22
2022-12-01T22:24:48.363Z,98724.53
2022-12-01T22:27:35.568Z,98725.09
2022-12-01T22:30:14.242Z,98727.94
2022-12-01T22:32:53.796Z,98719.97
2022-12-01T22:35:44.814Z,98729.66
2022-12-01T22:38:26.900Z,98723.06
2022-12-01T22:41:06.763Z,98728.50
2022-12-01T22:43:57.066Z,98719.75
2022-12-01T22:46:39.846Z,98731.03
2022-12-01T22:49:06.419Z,98726.78
2022-12-01T22:51:47.737Z,98718.28
2022-12-01T22:54:14.118Z,98716.00
2022-12-01T22:56:45.711Z,98720.84
2022-12-01T22:59:16.666Z,98719.66
2022-12-01T23:01:49.678Z,98720.19
2022-12-01T23:04:39.957Z,98719.03
2022-12-01T23:07:14.921Z,98718.50
2022-12-01T23:09:43.816Z,98717.19
2022-12-01T23:12:20.920Z,98714.44
2022-12-01T23:14:50.265Z,98714.66
2022-12-01T23:17:21.724Z,98711.25
2022-12-01T23:20:08.357Z,98707.22
2022-12-01T23:22:34.828Z,98717.00
2022-12-01T23:25:02.300Z,98709.13
2022-12-01T23:27:28.810Z,98705.94
2022-12-01T23:29:55.675Z,98701.81
2022-12-01T23:32:22.336Z,98704.16
2022-12-01T23:34:49.604Z,98705.53
2022-12-01T23:37:34.369Z,98702.97
2022-12-01T23:40:03.139Z,98703.50
2022-12-01T23:42:30.800Z,98701.25
2022-12-01T23:44:57.449Z,98701.16
2022-12-01T23:47:27.935Z,98703.16
2022-12-01T23:50:05.926Z,98698.72
2022-12-01T23:52:35.142Z,98702.75
2022-12-01T23:55:02.975Z,98690.00
2022-12-01T23:57:30.321Z,98701.16
